createdAt,value
2018-11-25T00:00:42.159Z,28.05
2018-11-25T00:03:10.540Z,26.80
2018-11-25T00:05:38.859Z,33.35
2018-11-25T00:08:07.184Z,31.57
2018-11-25T00:10:35.795Z,36.48
2018-11-25T00:13:04.356Z,31.42
2018-11-25T00:15:32.899Z,33.08
2018-11-25T00:18:01.455Z,33.15
2018-11-25T00:20:29.778Z,38.48
2018-11-25T00:22:58.223Z,31.50
2018-11-25T00:25:26.951Z,40.92
2018-11-25T00:27:55.553Z,68.17
2018-11-25T00:30:24.242Z,37.75
2018-11-25T00:32:52.533Z,38.33
2018-11-25T00:35:20.852Z,34.60
2018-11-25T00:37:49.345Z,37.05
2018-11-25T00:40:17.741Z,36.77
2018-11-25T00:42:46.397Z,31.70
2018-11-25T00:45:18.077Z,36.45
2018-11-25T00:47:46.590Z,37.80
2018-11-25T00:50:15.140Z,37.70
2018-11-25T00:52:43.706Z,35.70
2018-11-25T00:55:15.204Z,37.73
2018-11-25T00:57:43.569Z,28.85
2018-11-25T01:00:15.543Z,34.60
2018-11-25T01:02:43.985Z,37.55
2018-11-25T01:05:13.477Z,39.58
2018-11-25T01:07:42.197Z,35.20
2018-11-25T01:10:12.165Z,37.70
2018-11-25T01:12:40.789Z,37.10
2018-11-25T01:15:12.347Z,37.55
2018-11-25T01:17:41.319Z,37.50
2018-11-25T01:20:11.911Z,35.88
2018-11-25T01:22:41.059Z,37.58
2018-11-25T01:25:10.613Z,38.30
2018-11-25T01:27:39.070Z,39.03
2018-11-25T01:30:13.273Z,32.40
2018-11-25T01:32:41.561Z,34.25
2018-11-25T01:35:11.354Z,33.50
2018-11-25T01:37:40.228Z,28.83
2018-11-25T01:40:14.554Z,26.77
2018-11-25T01:42:43.059Z,29.60
2018-11-25T01:45:15.197Z,39.75
2018-11-25T01:47:43.516Z,32.08
2018-11-25T01:50:12.855Z,31.87
2018-11-25T01:52:41.125Z,34.08
2018-11-25T01:55:13.301Z,36.58
2018-11-25T01:57:41.625Z,35.85
2018-11-25T02:00:14.698Z,38.55
2018-11-25T02:02:42.989Z,32.05
2018-11-25T02:05:11.313Z,38.58
2018-11-25T02:07:39.627Z,34.75
2018-11-25T02:10:09.969Z,41.28
2018-11-25T02:12:38.286Z,43.25
2018-11-25T02:15:08.054Z,34.78
2018-11-25T02:17:36.417Z,34.88
2018-11-25T02:20:10.541Z,38.28
2018-11-25T02:22:38.871Z,36.05
2018-11-25T02:25:07.458Z,41.10
2018-11-25T02:27:35.873Z,37.60
2018-11-25T02:30:04.634Z,39.23
2018-11-25T02:32:32.946Z,40.30
2018-11-25T02:35:01.275Z,34.40
2018-11-25T02:37:29.597Z,32.98
2018-11-25T02:39:58.568Z,37.45
2018-11-25T02:42:26.886Z,34.20
2018-11-25T02:44:55.194Z,32.45
2018-11-25T02:47:23.527Z,40.00
2018-11-25T02:49:51.835Z,37.30
2018-11-25T02:52:20.140Z,29.15
2018-11-25T02:54:48.449Z,34.85
2018-11-25T02:57:20.987Z,35.38
2018-11-25T02:59:49.282Z,35.95
2018-11-25T03:02:17.585Z,35.83
2018-11-25T03:04:45.885Z,45.33
2018-11-25T03:07:14.193Z,34.58
2018-11-25T03:09:43.185Z,37.88
2018-11-25T03:12:13.739Z,43.52
2018-11-25T03:14:42.034Z,50.83
2018-11-25T03:17:10.925Z,47.30
2018-11-25T03:19:39.250Z,49.77
2018-11-25T03:22:08.482Z,47.70
2018-11-25T03:24:37.322Z,53.25
2018-11-25T03:27:05.626Z,59.33
2018-11-25T03:29:34.545Z,59.27
2018-11-25T03:32:03.633Z,75.10
2018-11-25T03:34:31.929Z,60.05
2018-11-25T03:37:00.277Z,69.55
2018-11-25T03:39:28.625Z,68.57
2018-11-25T03:41:56.953Z,62.48
2018-11-25T03:44:25.233Z,66.45
2018-11-25T03:46:53.554Z,68.83
2018-11-25T03:49:21.862Z,63.25
2018-11-25T03:51:50.167Z,54.85
2018-11-25T03:54:18.949Z,69.72
2018-11-25T03:56:47.281Z,71.10
2018-11-25T03:59:15.664Z,80.70
2018-11-25T04:01:43.951Z,75.87
2018-11-25T04:04:12.326Z,70.28
2018-11-25T04:06:40.620Z,70.05
2018-11-25T04:09:09.321Z,72.67
2018-11-25T04:11:37.771Z,63.90
2018-11-25T04:14:06.133Z,59.03
2018-11-25T04:16:34.426Z,65.80
2018-11-25T04:19:02.747Z,54.35
2018-11-25T04:21:31.046Z,41.60
2018-11-25T04:23:59.341Z,48.68
2018-11-25T04:26:27.834Z,47.23
2018-11-25T04:28:56.146Z,45.60
2018-11-25T04:31:24.557Z,43.02
2018-11-25T04:33:52.906Z,52.13
2018-11-25T04:36:22.182Z,52.70
2018-11-25T04:38:50.490Z,55.10
2018-11-25T04:41:18.821Z,60.20
2018-11-25T04:43:48.034Z,66.12
2018-11-25T04:46:16.346Z,54.38
2018-11-25T04:48:44.659Z,71.33
2018-11-25T04:51:12.949Z,76.47
2018-11-25T04:53:41.254Z,74.45
2018-11-25T04:56:09.557Z,75.55
2018-11-25T04:58:37.851Z,81.47
2018-11-25T05:01:06.200Z,81.30
2018-11-25T05:03:35.336Z,77.53
2018-11-25T05:06:03.629Z,62.60
2018-11-25T05:08:31.943Z,62.98
2018-11-25T05:11:00.315Z,65.45
2018-11-25T05:13:28.635Z,83.40
2018-11-25T05:15:56.971Z,71.77
2018-11-25T05:18:25.245Z,72.00
2018-11-25T05:20:53.533Z,74.65
2018-11-25T05:23:21.853Z,70.75
2018-11-25T05:25:50.182Z,69.47
2018-11-25T05:28:18.472Z,64.58
2018-11-25T05:30:46.775Z,59.38
2018-11-25T05:33:15.106Z,65.28
2018-11-25T05:35:43.418Z,70.12
2018-11-25T05:38:11.731Z,67.67
2018-11-25T05:40:40.029Z,73.12
2018-11-25T05:43:08.348Z,74.77
2018-11-25T05:45:36.707Z,65.37
2018-11-25T05:48:05.087Z,65.90
2018-11-25T05:50:33.434Z,65.03
2018-11-25T05:53:01.751Z,58.30
2018-11-25T05:55:30.090Z,73.62
2018-11-25T05:57:58.414Z,67.25
2018-11-25T06:00:30.023Z,74.37
2018-11-25T06:02:58.377Z,74.80
2018-11-25T06:05:26.693Z,86.15
2018-11-25T06:07:55.899Z,82.08
2018-11-25T06:10:24.382Z,86.25
2018-11-25T06:12:52.795Z,75.83
2018-11-25T06:15:21.147Z,88.15
2018-11-25T06:17:49.476Z,72.42
2018-11-25T06:20:18.173Z,78.78
2018-11-25T06:22:46.812Z,85.62
2018-11-25T06:25:18.129Z,74.03
2018-11-25T06:27:46.442Z,88.50
2018-11-25T06:30:16.792Z,73.00
2018-11-25T06:32:45.820Z,84.90
2018-11-25T06:35:14.938Z,78.72
2018-11-25T06:37:43.247Z,85.87
2018-11-25T06:40:17.991Z,81.42
2018-11-25T06:42:46.335Z,98.52
2018-11-25T06:45:17.031Z,88.60
2018-11-25T06:47:45.392Z,99.15
2018-11-25T06:50:13.722Z,101.27
2018-11-25T06:52:42.068Z,146.70
2018-11-25T06:55:11.418Z,118.75
2018-11-25T06:57:39.711Z,138.77
2018-11-25T07:00:15.702Z,115.15
2018-11-25T07:02:44.062Z,169.02
2018-11-25T07:05:12.416Z,128.35
2018-11-25T07:07:40.720Z,130.80
2018-11-25T07:10:14.577Z,134.85
2018-11-25T07:12:49.729Z,120.80
2018-11-25T07:15:18.582Z,134.15
2018-11-25T07:17:46.958Z,133.47
2018-11-25T07:20:15.981Z,121.00
2018-11-25T07:22:44.414Z,108.52
2018-11-25T07:25:14.606Z,128.82
2018-11-25T07:27:42.920Z,99.80
2018-11-25T07:30:17.300Z,112.10
2018-11-25T07:32:45.671Z,117.95
2018-11-25T07:35:13.994Z,99.47
2018-11-25T07:37:42.355Z,110.40
2018-11-25T07:40:12.899Z,121.13
2018-11-25T07:42:41.352Z,95.00
2018-11-25T07:45:12.035Z,108.07
2018-11-25T07:47:44.010Z,105.35
2018-11-25T07:50:13.869Z,95.20
2018-11-25T07:52:43.147Z,99.80
2018-11-25T07:55:17.542Z,95.60
2018-11-25T07:57:46.900Z,92.50
2018-11-25T08:00:16.988Z,86.72
2018-11-25T08:02:45.649Z,81.28
2018-11-25T08:05:15.089Z,87.88
2018-11-25T08:07:49.582Z,80.72
2018-11-25T08:10:18.299Z,78.70
2018-11-25T08:12:46.997Z,83.97
2018-11-25T08:15:17.049Z,73.10
2018-11-25T08:17:46.291Z,74.75
2018-11-25T08:20:17.194Z,82.42
2018-11-25T08:22:45.545Z,81.45
2018-11-25T08:25:16.573Z,77.03
2018-11-25T08:27:45.409Z,71.28
2018-11-25T08:30:21.997Z,75.12
2018-11-25T08:32:50.670Z,72.03
2018-11-25T08:35:22.214Z,73.83
2018-11-25T08:37:50.874Z,70.10
2018-11-25T08:40:22.989Z,72.03
2018-11-25T08:42:51.534Z,81.30
2018-11-25T08:45:20.144Z,64.87
2018-11-25T08:47:49.923Z,72.90
2018-11-25T08:50:19.333Z,66.53
2018-11-25T08:52:49.794Z,70.95
2018-11-25T08:55:20.163Z,74.80
2018-11-25T08:57:49.132Z,77.87
2018-11-25T09:00:19.384Z,69.50
2018-11-25T09:02:48.567Z,72.58
2018-11-25T09:05:20.909Z,65.70
2018-11-25T09:07:50.085Z,70.00
2018-11-25T09:10:20.246Z,60.40
2018-11-25T09:12:56.068Z,72.25
2018-11-25T09:15:23.889Z,69.95
2018-11-25T09:17:52.392Z,70.45
2018-11-25T09:20:21.705Z,65.60
2018-11-25T09:22:50.589Z,65.95
2018-11-25T09:25:25.392Z,64.05
2018-11-25T09:27:53.829Z,72.90
2018-11-25T09:30:23.361Z,66.72
2018-11-25T09:32:51.702Z,65.08
2018-11-25T09:35:20.014Z,67.97
2018-11-25T09:37:48.304Z,63.70
2018-11-25T09:40:17.600Z,68.95
2018-11-25T09:42:45.905Z,64.67
2018-11-25T09:45:14.961Z,67.55
2018-11-25T09:47:43.498Z,71.25
2018-11-25T09:50:16.740Z,74.37
2018-11-25T09:52:45.048Z,62.15
2018-11-25T09:55:15.085Z,59.53
2018-11-25T09:57:44.477Z,59.50
2018-11-25T10:00:15.978Z,61.10
2018-11-25T10:02:44.493Z,75.97
2018-11-25T10:05:13.394Z,68.35
2018-11-25T10:07:42.313Z,70.78
2018-11-25T10:10:13.854Z,67.70
2018-11-25T10:12:42.473Z,64.87
2018-11-25T10:15:13.002Z,67.75
2018-11-25T10:17:42.896Z,67.32
2018-11-25T10:20:18.322Z,62.80
2018-11-25T10:22:47.278Z,72.97
2018-11-25T10:25:16.528Z,61.95
2018-11-25T10:27:45.545Z,69.07
2018-11-25T10:30:18.085Z,51.77
2018-11-25T10:32:47.628Z,61.40
2018-11-25T10:35:16.006Z,63.33
2018-11-25T10:37:44.514Z,65.08
2018-11-25T10:40:16.028Z,53.73
2018-11-25T10:42:46.001Z,64.15
2018-11-25T10:45:21.399Z,59.15
2018-11-25T10:47:50.278Z,60.70
2018-11-25T10:50:19.681Z,59.30
2018-11-25T10:52:48.729Z,69.27
2018-11-25T10:55:17.974Z,66.20
2018-11-25T10:57:48.159Z,58.13
2018-11-25T11:00:25.847Z,62.10
2018-11-25T11:02:59.477Z,62.17
2018-11-25T11:05:33.336Z,60.43
2018-11-25T11:08:01.664Z,66.72
2018-11-25T11:10:30.015Z,70.10
2018-11-25T11:12:58.919Z,62.40
2018-11-25T11:15:26.707Z,64.72
2018-11-25T11:17:55.036Z,61.75
2018-11-25T11:20:23.405Z,62.60
2018-11-25T11:22:51.714Z,60.95
2018-11-25T11:25:20.041Z,65.00
2018-11-25T11:27:48.418Z,63.60
2018-11-25T11:30:16.760Z,60.67
2018-11-25T11:32:46.377Z,60.20
2018-11-25T11:35:14.737Z,67.53
2018-11-25T11:37:43.025Z,63.40
2018-11-25T11:40:12.377Z,61.08
2018-11-25T11:42:41.179Z,73.80
2018-11-25T11:45:10.917Z,54.08
2018-11-25T11:47:39.185Z,62.95
2018-11-25T11:50:12.841Z,69.42
2018-11-25T11:52:41.249Z,60.30
2018-11-25T11:55:11.006Z,64.65
2018-11-25T11:57:39.877Z,60.38
2018-11-25T12:00:26.702Z,56.75
2018-11-25T12:02:55.058Z,54.00
2018-11-25T12:05:23.367Z,57.83
2018-11-25T12:07:51.677Z,54.42
2018-11-25T12:10:20.146Z,59.42
2018-11-25T12:12:48.445Z,56.42
2018-11-25T12:15:20.092Z,57.50
2018-11-25T12:17:48.517Z,52.98
2018-11-25T12:20:16.879Z,66.37
2018-11-25T12:22:45.420Z,51.80
2018-11-25T12:25:15.637Z,52.55
2018-11-25T12:27:44.081Z,53.95
2018-11-25T12:30:13.229Z,60.38
2018-11-25T12:32:41.981Z,61.02
2018-11-25T12:35:11.309Z,56.80
2018-11-25T12:37:39.669Z,57.58
2018-11-25T12:40:10.435Z,64.05
2018-11-25T12:42:38.863Z,59.65
2018-11-25T12:45:14.273Z,56.33
2018-11-25T12:47:42.666Z,63.87
2018-11-25T12:50:15.875Z,72.03
2018-11-25T12:52:44.955Z,70.47
2018-11-25T12:55:15.348Z,67.42
2018-11-25T12:57:43.679Z,65.92
2018-11-25T13:00:19.282Z,61.00
2018-11-25T13:02:47.617Z,63.87
2018-11-25T13:05:16.038Z,77.08
2018-11-25T13:07:45.408Z,67.45
2018-11-25T13:10:13.761Z,74.50
2018-11-25T13:12:42.134Z,76.95
2018-11-25T13:15:10.476Z,64.12
2018-11-25T13:17:42.206Z,69.55
2018-11-25T13:20:12.533Z,66.82
2018-11-25T13:22:41.197Z,71.07
2018-11-25T13:25:10.815Z,60.55
2018-11-25T13:27:39.209Z,67.78
2018-11-25T13:30:20.274Z,66.82
2018-11-25T13:32:48.378Z,60.35
2018-11-25T13:35:16.744Z,76.45
2018-11-25T13:37:45.055Z,72.30
2018-11-25T13:40:14.389Z,83.60
2018-11-25T13:42:42.899Z,72.62
2018-11-25T13:45:12.022Z,67.97
2018-11-25T13:47:40.369Z,93.50
2018-11-25T13:50:10.703Z,87.90
2018-11-25T13:52:39.094Z,84.20
2018-11-25T13:55:09.890Z,75.35
2018-11-25T13:57:38.363Z,72.62
2018-11-25T14:00:12.033Z,74.40
2018-11-25T14:02:40.428Z,77.25
2018-11-25T14:05:08.812Z,70.65
2018-11-25T14:07:37.136Z,81.05
2018-11-25T14:10:10.078Z,83.80
2018-11-25T14:12:38.455Z,87.95
2018-11-25T14:15:09.397Z,86.00
2018-11-25T14:17:37.757Z,113.03
2018-11-25T14:20:07.965Z,97.25
2018-11-25T14:22:36.297Z,90.70
2018-11-25T14:25:05.838Z,99.97
2018-11-25T14:27:34.163Z,103.40
2018-11-25T14:30:02.508Z,92.00
2018-11-25T14:32:30.911Z,99.05
2018-11-25T14:34:59.347Z,89.55
2018-11-25T14:37:27.649Z,90.57
2018-11-25T14:39:55.976Z,84.47
2018-11-25T14:42:24.685Z,83.17
2018-11-25T14:44:53.666Z,79.22
2018-11-25T14:47:21.966Z,76.15
2018-11-25T14:49:50.331Z,69.50
2018-11-25T14:52:18.659Z,67.45
2018-11-25T14:54:51.293Z,72.32
2018-11-25T14:57:15.362Z,65.80
2018-11-25T14:59:43.711Z,68.92
2018-11-25T15:02:12.016Z,58.33
2018-11-25T15:04:40.360Z,65.67
2018-11-25T15:07:08.717Z,56.88
2018-11-25T15:09:37.060Z,57.25
2018-11-25T15:12:05.615Z,54.73
2018-11-25T15:14:34.036Z,61.98
2018-11-25T15:17:02.366Z,58.25
2018-11-25T15:19:30.762Z,55.65
2018-11-25T15:21:59.082Z,52.17
2018-11-25T15:24:27.405Z,62.53
2018-11-25T15:26:55.714Z,55.78
2018-11-25T15:29:24.034Z,56.70
2018-11-25T15:31:52.425Z,61.23
2018-11-25T15:34:20.762Z,53.70
2018-11-25T15:36:49.107Z,63.42
2018-11-25T15:39:17.408Z,62.33
2018-11-25T15:41:45.818Z,57.80
2018-11-25T15:44:15.818Z,56.10
2018-11-25T15:46:44.178Z,53.60
2018-11-25T15:49:12.541Z,52.83
2018-11-25T15:51:40.861Z,57.17
2018-11-25T15:54:09.254Z,52.33
2018-11-25T15:56:38.652Z,62.08
2018-11-25T15:59:06.964Z,54.45
2018-11-25T16:01:37.460Z,55.95
2018-11-25T16:04:11.077Z,50.85
2018-11-25T16:06:39.533Z,54.42
2018-11-25T16:09:08.838Z,52.78
2018-11-25T16:11:37.168Z,54.48
2018-11-25T16:14:05.613Z,52.78
2018-11-25T16:16:33.924Z,48.92
2018-11-25T16:19:02.348Z,53.30
2018-11-25T16:21:30.647Z,51.53
2018-11-25T16:23:58.992Z,46.75
2018-11-25T16:26:29.585Z,41.13
2018-11-25T16:29:01.446Z,43.50
2018-11-25T16:31:29.797Z,42.90
2018-11-25T16:33:58.114Z,45.43
2018-11-25T16:36:26.423Z,43.65
2018-11-25T16:38:54.746Z,46.63
2018-11-25T16:41:23.070Z,44.10
2018-11-25T16:43:51.446Z,37.60
2018-11-25T16:46:19.765Z,41.58
2018-11-25T16:48:48.072Z,45.92
2018-11-25T16:51:16.504Z,40.10
2018-11-25T16:53:44.942Z,37.48
2018-11-25T16:56:13.267Z,34.65
2018-11-25T16:58:41.574Z,33.50
2018-11-25T17:01:10.448Z,33.02
2018-11-25T17:03:38.276Z,31.57
2018-11-25T17:06:10.511Z,33.75
2018-11-25T17:08:41.525Z,28.60
2018-11-25T17:11:09.977Z,30.55
2018-11-25T17:13:38.288Z,30.55
2018-11-25T17:16:07.457Z,31.50
2018-11-25T17:18:35.939Z,23.18
2018-11-25T17:21:04.585Z,29.87
2018-11-25T17:23:33.274Z,28.70
2018-11-25T17:26:01.615Z,26.80
2018-11-25T17:28:29.969Z,30.27
2018-11-25T17:30:58.273Z,29.07
2018-11-25T17:33:26.584Z,32.55
2018-11-25T17:35:55.488Z,30.08
2018-11-25T17:38:24.936Z,33.98
2018-11-25T17:40:52.235Z,27.30
2018-11-25T17:43:22.828Z,26.70
2018-11-25T17:45:51.145Z,26.10
2018-11-25T17:48:20.369Z,25.68
2018-11-25T17:50:48.751Z,24.80
2018-11-25T17:53:20.816Z,25.70
2018-11-25T17:55:45.507Z,27.13
2018-11-25T17:58:13.891Z,26.50
2018-11-25T18:00:46.893Z,23.67
2018-11-25T18:03:22.311Z,24.67
2018-11-25T18:05:50.727Z,26.33
2018-11-25T18:08:19.026Z,24.23
2018-11-25T18:10:47.361Z,25.72
2018-11-25T18:13:16.646Z,24.00
2018-11-25T18:15:45.001Z,25.32
2018-11-25T18:18:16.149Z,24.40
2018-11-25T18:20:47.314Z,26.35
2018-11-25T18:23:15.754Z,25.60
2018-11-25T18:25:44.031Z,27.67
2018-11-25T18:28:12.409Z,25.35
2018-11-25T18:30:40.715Z,26.62
2018-11-25T18:33:09.034Z,28.30
2018-11-25T18:35:37.421Z,27.55
2018-11-25T18:38:06.333Z,24.90
2018-11-25T18:40:34.646Z,30.10
2018-11-25T18:43:02.954Z,27.62
2018-11-25T18:45:31.674Z,22.60
2018-11-25T18:48:00.038Z,26.20
2018-11-25T18:50:28.352Z,23.83
2018-11-25T18:52:56.734Z,24.90
2018-11-25T18:55:23.991Z,24.63
2018-11-25T18:57:52.282Z,26.95
2018-11-25T19:00:24.986Z,25.48
2018-11-25T19:02:53.347Z,28.70
2018-11-25T19:05:21.646Z,26.15
2018-11-25T19:07:50.009Z,29.90
2018-11-25T19:10:19.073Z,30.95
2018-11-25T19:12:47.454Z,33.90
2018-11-25T19:15:16.998Z,26.02
2018-11-25T19:17:45.318Z,32.60
2018-11-25T19:20:14.901Z,34.10
2018-11-25T19:22:44.135Z,31.10
2018-11-25T19:25:14.814Z,27.98
2018-11-25T19:27:43.640Z,32.15
2018-11-25T19:30:13.076Z,30.37
2018-11-25T19:32:41.725Z,30.35
2018-11-25T19:35:11.182Z,26.40
2018-11-25T19:37:39.729Z,28.17
2018-11-25T19:40:10.264Z,30.50
2018-11-25T19:42:38.613Z,33.10
2018-11-25T19:45:09.905Z,39.67
2018-11-25T19:47:38.210Z,37.78
2018-11-25T19:50:10.185Z,37.55
2018-11-25T19:52:38.589Z,38.00
2018-11-25T19:55:07.705Z,34.50
2018-11-25T19:57:36.021Z,33.98
2018-11-25T20:00:06.274Z,31.87
2018-11-25T20:02:34.641Z,34.25
2018-11-25T20:05:02.988Z,35.78
2018-11-25T20:07:31.313Z,35.73
2018-11-25T20:09:59.895Z,36.60
2018-11-25T20:12:33.639Z,39.55
2018-11-25T20:15:02.073Z,31.33
2018-11-25T20:17:30.434Z,29.95
2018-11-25T20:20:02.595Z,35.73
2018-11-25T20:22:30.990Z,33.38
2018-11-25T20:24:59.713Z,30.35
2018-11-25T20:27:33.401Z,33.78
2018-11-25T20:30:01.787Z,33.42
2018-11-25T20:32:35.473Z,39.92
2018-11-25T20:35:03.870Z,27.95
2018-11-25T20:37:32.497Z,32.17
2018-11-25T20:40:00.903Z,39.42
2018-11-25T20:42:29.234Z,26.25
2018-11-25T20:44:57.557Z,28.10
2018-11-25T20:47:25.890Z,25.92
2018-11-25T20:49:54.205Z,28.60
2018-11-25T20:52:45.462Z,25.90
2018-11-25T20:55:16.942Z,22.98
2018-11-25T20:57:46.619Z,24.55
2018-11-25T21:00:16.991Z,27.40
2018-11-25T21:02:50.361Z,26.62
2018-11-25T21:05:19.588Z,24.55
2018-11-25T21:07:47.945Z,23.47
2018-11-25T21:10:18.430Z,23.57
2018-11-25T21:12:51.003Z,19.90
2018-11-25T21:15:19.325Z,24.40
2018-11-25T21:17:47.786Z,25.32
2018-11-25T21:20:22.018Z,26.80
2018-11-25T21:22:50.410Z,24.23
2018-11-25T21:25:19.785Z,19.60
2018-11-25T21:27:48.206Z,23.10
2018-11-25T21:30:19.325Z,20.20
2018-11-25T21:32:48.607Z,23.62
2018-11-25T21:35:17.002Z,20.57
2018-11-25T21:37:45.333Z,21.85
2018-11-25T21:40:14.717Z,23.40
2018-11-25T21:42:43.043Z,22.67
2018-11-25T21:45:15.291Z,21.15
2018-11-25T21:47:43.717Z,19.48
2018-11-25T21:50:27.774Z,22.93
2018-11-25T21:52:56.070Z,23.30
2018-11-25T21:55:24.973Z,20.12
2018-11-25T21:57:53.354Z,25.37
2018-11-25T22:00:22.703Z,26.33
2018-11-25T22:02:51.029Z,21.33
2018-11-25T22:05:20.084Z,19.45
2018-11-25T22:07:47.787Z,26.23
2018-11-25T22:10:18.346Z,23.65
2018-11-25T22:12:46.927Z,25.88
2018-11-25T22:15:18.030Z,21.73
2018-11-25T22:17:46.395Z,23.77
2018-11-25T22:20:15.314Z,21.93
2018-11-25T22:22:43.649Z,22.70
2018-11-25T22:25:16.664Z,25.85
2018-11-25T22:27:48.915Z,23.70
2018-11-25T22:30:21.201Z,23.22
2018-11-25T22:32:49.531Z,24.57
2018-11-25T22:35:19.018Z,23.50
2018-11-25T22:37:47.745Z,25.95
2018-11-25T22:40:16.891Z,25.02
2018-11-25T22:42:46.322Z,25.12
2018-11-25T22:45:15.631Z,27.07
2018-11-25T22:47:45.484Z,24.35
2018-11-25T22:50:15.524Z,23.55
2018-11-25T22:52:44.025Z,26.20
2018-11-25T22:55:21.828Z,22.37
2018-11-25T22:57:50.262Z,23.38
2018-11-25T23:00:24.006Z,25.60
2018-11-25T23:02:52.317Z,19.30
2018-11-25T23:05:31.949Z,26.50
2018-11-25T23:08:00.286Z,24.32
2018-11-25T23:10:28.722Z,25.85
2018-11-25T23:12:57.055Z,26.07
2018-11-25T23:15:25.350Z,29.75
2018-11-25T23:17:53.674Z,32.23
2018-11-25T23:20:21.987Z,26.02
2018-11-25T23:22:50.300Z,27.87
2018-11-25T23:25:19.700Z,26.82
2018-11-25T23:27:48.630Z,33.02
2018-11-25T23:30:17.693Z,27.62
2018-11-25T23:32:46.116Z,23.32
2018-11-25T23:35:17.202Z,26.55
2018-11-25T23:37:45.665Z,28.98
2018-11-25T23:40:13.995Z,26.55
2018-11-25T23:42:42.325Z,37.00
2018-11-25T23:45:14.719Z,30.40
2018-11-25T23:47:43.145Z,27.45
2018-11-25T23:50:13.265Z,26.62
2018-11-25T23:52:42.534Z,30.75
2018-11-25T23:55:11.918Z,29.90
2018-11-25T23:57:40.289Z,26.95
